Woodland Park Weather Observations

home  gauges   today   yesterday   NOAA reports   graphs 
this month    this year    monthly records   extremes  

Observations from 8/12/2018 3:00 pm back to 8/9/2018 03:00 pm half hourly.

 

Observations previous 72 hours
 
Date/Time
MST
 
Temp
°F
App
Temp
°F
Heat
Index
°F
Wind
Chill
°F
Dew
Point
°F
Rel
Hum
%
 
Dir
 
 
Spd
kph
Wind
Gust
kph
 
Speed
MPH
 
Gust
MPH
Press
MSL
in
Rain
Since 12am
in
12/03:00pm 71.1 71.1 71.1 46.8 42 5.0 8.7 30.14 0.00 0 0
12/02:30pm 71.8 71.8 71.8 48.1 43 5.1 8.7 30.13 0.00 0 0
12/02:00pm 72.9 72.9 72.9 48.5 42 4.2 8.1 30.14 0.00 0 0
12/01:30pm 71.6 71.6 71.6 42.5 35 3.4 6.7 30.14 0.00 0 0
12/01:00pm 71.6 71.6 71.6 46.7 41 3.1 5.4 30.14 0.00 0 0
12/12:30pm 70.2 70.2 70.2 46.0 42 3.1 6.7 30.15 0.00 0 0
12/12:00pm 68.4 68.4 68.4 45.6 44 3.6 6.0 30.16 0.00 0 0
12/11:30am 68.0 68.0 68.0 44.7 43 3.1 6.7 30.16 0.00 0 0
12/11:00am 69.4 69.4 69.4 43.4 39 2.0 4.0 30.16 0.00 0 0
12/10:30am 67.1 67.1 67.1 40.0 37 1.3 3.4 30.16 0.00 0 0
12/10:00am 63.9 63.9 63.9 40.3 42 1.5 3.4 30.17 0.00 0 0
12/09:30am 61.7 61.7 61.7 42.4 49 1.4 3.4 30.16 0.00 0 0
12/09:00am 58.6 58.6 58.6 43.0 56 1.7 4.0 30.16 0.00 0 0
12/08:49am 58.1 58.1 58.1 43.9 59 1.3 2.0 30.16 0.00 0 0
12/08:28am 55.8 55.8 55.8 42.9 62 0.7 2.0 30.17 0.00 0 0
12/07:58am 52.9 52.9 52.9 43.4 70 0.0 0.7 30.17 0.00 0 0
12/07:28am 50.5 50.5 50.5 41.8 72 0.0 1.3 30.16 0.00 0 0
12/06:58am 48.2 48.2 48.2 42.0 79 0.7 1.3 30.17 0.00 0 0
12/06:28am 46.6 46.6 46.6 41.7 83 0.0 0.0 30.17 0.00 0 0
12/05:58am 46.2 46.2 46.2 41.3 83 0.0 0.0 30.16 0.00 0 0
12/05:28am 46.9 46.9 46.9 41.4 81 0.0 0.0 30.17 0.00 0 0
12/04:58am 47.5 47.5 47.5 41.6 80 0.0 0.0 30.17 0.00 0 0
12/04:28am 46.9 46.9 46.9 41.1 80 0.0 0.0 30.18 0.00 0 0
12/03:58am 48.6 48.6 48.6 39.9 72 0.0 0.0 30.18 0.00 0 0
12/03:28am 48.7 48.7 48.7 42.2 78 0.0 2.7 30.19 0.00 0 0
12/02:58am 46.8 46.8 46.8 41.6 82 0.0 0.0 30.19 0.00 0 0
12/02:28am 47.8 47.8 47.8 42.0 80 0.0 0.0 30.19 0.00 0 0
12/01:58am 48.2 48.2 48.2 42.0 79 0.0 0.0 30.21 0.00 0 0
12/01:28am 50.4 50.4 50.4 42.4 74 0.0 0.0 30.21 0.00 0 0
12/12:58am 51.4 51.4 51.4 42.7 72 0.0 0.0 30.21 0.00 0 0
12/12:28am 52.3 52.3 52.3 43.2 71 0.0 0.0 30.22 0.00 0 0
11/11:58pm 54.0 54.0 54.0 43.6 68 0.7 2.0 30.24 0.00 0 0
11/11:28pm 54.7 54.7 54.7 43.9 67 1.3 2.0 30.23 0.00 0 0
11/10:30pm 57.0 57.0 57.0 44.6 63 2.3 4.7 30.23 0.00 0 0
11/10:00pm 58.1 58.1 58.1 44.7 61 2.1 3.4 30.23 0.00 0 0
11/09:30pm 58.5 58.5 58.5 43.3 57 1.7 3.4 30.23 0.00 0 0
11/09:00pm 59.5 59.5 59.5 42.9 54 1.5 2.7 30.22 0.00 0 0
11/08:30pm 61.5 61.5 61.5 42.2 49 2.6 4.7 30.20 0.00 0 0
11/08:00pm 62.4 62.4 62.4 39.6 43 2.9 6.0 30.20 0.00 0 0
11/07:30pm 64.4 64.4 64.4 39.6 40 2.3 4.0 30.19 0.00 0 0
11/07:00pm 66.6 66.6 66.6 38.8 36 3.1 6.0 30.19 0.00 0 0
11/06:30pm 68.5 68.5 68.5 39.8 35 3.8 6.7 30.19 0.00 0 0
11/06:00pm 70.5 70.5 70.5 39.3 32 3.9 6.7 30.20 0.00 0 0
11/05:30pm 70.7 70.7 70.7 40.2 33 3.8 6.0 30.19 0.00 0 0
11/05:00pm 71.8 71.8 71.8 41.9 34 4.4 7.4 30.19 0.00 0 0
11/04:30pm 72.5 72.5 72.5 41.0 32 4.0 7.4 30.20 0.00 0 0
11/04:00pm 73.2 73.2 73.2 41.6 32 4.0 7.4 30.20 0.00 0 0
11/03:30pm 73.0 73.0 73.0 42.3 33 4.0 7.4 30.20 0.00 0 0
 
Date/Time
MST
 
Temp
°F
App
Temp
°F
Heat
Index
°F
Wind
Chill
°F
Dew
Point
°F
Rel
Hum
%
 
Dir
 
 
Spd
km/h
Wind
Gust
km/h
 
Speed
MPH
 
Gust
MPH
Press
MSL
in
Rain
Since 9am
in
 
Solar
W/m2
 
UV
Index
11/03:00pm 72.3 72.3 72.3 40.8 32 4.4 8.7 30.20 0.00 0 0
11/02:30pm 73.4 73.4 73.4 43.4 34 3.8 6.7 30.21 0.00 0 0
11/02:30pm 73.4 73.4 73.4 43.4 34 3.8 6.7 30.21 0.00 0 0
11/01:58pm 74.1 74.1 74.1 43.9 34 4.7 6.0 30.22 0.00 0 0
11/01:28pm 71.6 71.6 71.6 42.5 35 4.0 6.0 30.22 0.00 0 0
11/12:58pm 71.6 71.6 71.6 44.6 38 4.0 6.0 30.22 0.00 0 0
11/12:28pm 72.0 72.0 72.0 45.6 39 3.4 5.4 30.22 0.00 0 0
11/11:58am 69.6 69.6 69.6 46.1 43 4.0 5.4 30.24 0.00 0 0
11/11:28am 70.0 70.0 70.0 41.1 35 4.0 5.4 30.24 0.00 0 0
11/10:58am 70.0 70.0 70.0 38.8 32 2.0 3.4 30.24 0.00 0 0
11/10:28am 67.3 67.3 67.3 27.1 22 0.7 1.3 30.24 0.00 0 0
11/09:30am 64.2 64.2 64.2 44.1 48 0.9 4.7 30.25 0.00 0 0
11/09:00am 61.2 61.2 61.2 43.9 53 1.1 4.0 30.24 0.00 0 0
11/08:30am 59.4 59.4 59.4 46.4 62 0.2 2.7 30.24 0.00 0 0
11/08:30am 59.4 59.4 59.4 46.4 62 0.2 2.7 30.24 0.00 0 0
11/07:58am 55.9 55.9 55.9 47.4 73 0.0 0.0 30.25 0.00 0 0
11/07:28am 53.1 53.1 53.1 46.7 79 0.0 0.0 30.24 0.00 0 0
11/06:58am 51.4 51.4 51.4 44.8 78 0.0 0.0 30.24 0.00 0 0
11/06:28am 51.3 51.3 51.3 45.3 80 0.0 0.0 30.24 0.00 0 0
11/05:58am 50.2 50.2 50.2 45.2 83 0.0 0.7 30.23 0.00 0 0
11/05:28am 50.5 50.5 50.5 44.9 81 0.0 0.0 30.23 0.00 0 0
11/04:58am 50.7 50.7 50.7 43.8 77 0.0 0.0 30.23 0.00 0 0
11/04:28am 51.8 51.8 51.8 43.8 74 0.0 0.0 30.23 0.00 0 0
11/03:58am 50.7 50.7 50.7 44.1 78 0.0 0.0 30.23 0.00 0 0
11/03:28am 52.0 52.0 52.0 43.9 74 0.0 0.0 30.24 0.00 0 0
11/02:58am 52.7 52.7 52.7 44.3 73 0.0 0.0 30.24 0.00 0 0
11/02:28am 51.1 51.1 51.1 45.1 80 0.7 1.3 30.25 0.00 0 0
11/01:58am 50.0 50.0 50.0 44.7 82 0.0 0.0 30.25 0.00 0 0
11/01:28am 50.7 50.7 50.7 45.1 81 0.0 0.0 30.26 0.00 0 0
11/12:58am 51.6 51.6 51.6 44.6 77 0.0 0.0 30.27 0.00 0 0
11/12:28am 52.3 52.3 52.3 45.0 76 0.0 0.0 30.27 0.00 0 0
10/11:58pm 53.6 53.6 53.6 44.0 70 0.0 0.0 30.27 0.00 0 0
10/11:28pm 55.2 55.2 55.2 44.8 68 0.0 1.3 30.28 0.00 0 0
10/10:58pm 56.1 56.1 56.1 44.9 66 2.0 3.4 30.28 0.00 0 0
10/10:00pm 59.2 59.2 59.2 44.4 58 2.8 6.0 30.27 0.00 0 0
10/09:30pm 60.8 60.8 60.8 45.5 57 4.3 8.1 30.27 0.00 0 0
10/09:00pm 60.8 60.8 60.8 46.8 60 3.8 6.7 30.27 0.00 0 0
10/08:30pm 61.3 61.3 61.3 47.3 60 3.8 7.4 30.25 0.00 0 0
10/08:00pm 62.6 62.6 62.6 47.6 58 3.5 5.4 30.25 0.00 0 0
10/07:30pm 64.2 64.2 64.2 47.7 55 3.2 6.7 30.24 0.00 0 0
10/07:00pm 66.0 66.0 66.0 46.9 50 3.0 6.7 30.24 0.00 0 0
10/06:30pm 68.4 68.4 68.4 46.2 45 3.8 7.4 30.23 0.00 0 0
10/06:00pm 69.6 69.6 69.6 44.9 41 2.7 4.7 30.23 0.00 0 0
10/06:00pm 69.6 69.6 69.6 44.9 41 2.7 4.7 30.23 0.00 0 0
10/05:00pm 74.1 74.1 74.1 45.5 36 2.2 5.4 30.23 0.00 0 0
10/04:30pm 70.7 70.7 70.7 43.9 38 3.0 6.0 30.24 0.00 0 0
10/04:00pm 69.1 69.1 69.1 43.1 39 3.4 6.0 30.24 0.00 0 0
10/03:30pm 72.7 72.7 72.7 46.3 39 3.9 8.1 30.23 0.00 0 0
 
Date/Time
WST
 
Temp
°F
App
Temp
°F
Heat
Index
°F
Wind
Chill
°F
Dew
Point
°F
Rel
Hum
%
 
Dir
 
 
Spd
km/h
Wind
Gust
km/h
 
Spd
kts
 
Gust
kts
Press
MSL
in
Rain
Since 9am
in
 
Solar
W/m2
 
UV
Index
10/03:00pm 70.2 70.2 70.2 46.6 43 4.9 12.1 30.24 0.00 0 0
10/02:30pm 70.0 70.0 70.0 49.4 48 4.9 8.7 30.24 0.00 0 0
10/02:00pm 68.7 68.7 68.7 50.9 53 3.8 7.4 30.23 0.00 0 0
10/01:30pm 70.7 70.7 70.7 52.8 53 4.8 9.4 30.25 0.00 0 0
10/01:30pm 70.7 70.7 70.7 52.8 53 4.8 9.4 30.25 0.00 0 0
10/12:30pm 69.3 69.3 69.3 51.9 54 3.7 6.7 30.25 0.00 0 0
10/12:30pm 69.3 69.3 69.3 51.9 54 3.7 6.7 30.25 0.00 0 0
10/11:30am 68.4 68.4 68.4 34.9 29 2.6 4.7 30.26 0.00 0 0
10/11:00am 71.2 71.2 71.2 38.2 30 2.9 6.7 30.26 0.00 0 0
10/10:30am 68.4 68.4 68.4 38.2 33 2.5 6.0 30.26 0.00 0 0
10/10:00am 67.1 67.1 67.1 36.3 32 4.3 9.4 30.26 0.00 0 0
10/10:00am 67.1 67.1 67.1 36.3 32 4.3 9.4 30.26 0.00 0 0
10/09:00am 62.4 62.4 62.4 47.5 58 0.2 1.3 30.25 0.00 0 0
10/08:30am 60.6 60.6 60.6 48.0 63 0.0 0.0 30.25 0.00 0 0
10/08:00am 57.4 57.4 57.4 49.5 75 0.0 0.0 30.25 0.00 0 0
10/08:00am 57.4 57.4 57.4 49.5 75 0.0 0.0 30.25 0.00 0 0
10/07:29am 54.7 54.7 54.7 48.0 78 0.0 0.0 30.24 0.00 0 0
10/06:59am 52.7 52.7 52.7 46.4 79 0.0 0.0 30.24 0.00 0 0
10/06:29am 54.7 54.7 54.7 46.2 73 0.7 1.3 30.25 0.00 0 0
10/05:59am 54.1 54.1 54.1 46.4 75 0.0 0.0 30.25 0.00 0 0
10/05:29am 53.2 53.2 53.2 46.2 77 0.7 1.3 30.24 0.00 0 0
10/04:59am 52.7 52.7 52.7 45.0 75 0.0 0.0 30.25 0.00 0 0
10/04:29am 54.0 54.0 54.0 44.8 71 0.0 0.7 30.25 0.00 0 0
10/03:59am 55.8 55.8 55.8 44.6 66 0.7 1.3 30.26 0.00 0 0
10/03:29am 53.2 53.2 53.2 44.4 72 0.0 0.0 30.25 0.00 0 0
10/02:59am 53.8 53.8 53.8 44.2 70 0.0 0.0 30.24 0.00 0 0
10/02:29am 54.5 54.5 54.5 44.2 68 0.0 0.0 30.26 0.00 0 0
10/01:59am 55.2 55.2 55.2 46.0 71 0.0 0.7 30.26 0.00 0 0
10/01:29am 52.9 52.9 52.9 46.2 78 0.0 0.0 30.26 0.00 0 0
10/12:59am 52.9 52.9 52.9 46.9 80 0.0 0.0 30.27 0.00 0 0
10/12:29am 53.2 53.2 53.2 47.2 80 0.0 0.0 30.27 0.00 0 0
9/11:59pm 54.3 54.3 54.3 46.9 76 0.0 0.0 30.27 0.00 0 0
9/11:29pm 55.2 55.2 55.2 46.3 72 0.0 0.0 30.27 0.00 0 0
9/10:59pm 55.4 55.4 55.4 47.2 74 0.0 0.0 30.27 0.00 0 0
9/10:00pm 57.2 57.2 57.2 47.9 71 0.0 0.0 30.28 0.00 0 0
9/09:30pm 58.5 58.5 58.5 47.6 67 0.0 0.0 30.27 0.00 0 0
9/09:00pm 60.4 60.4 60.4 46.9 61 0.0 0.0 30.26 0.00 0 0
9/08:30pm 61.3 61.3 61.3 46.9 59 0.6 2.7 30.25 0.00 0 0
9/08:00pm 62.6 62.6 62.6 47.2 57 1.4 3.4 30.25 0.00 0 0
9/07:30pm 64.0 64.0 64.0 46.6 53 1.4 2.7 30.24 0.00 0 0
9/07:00pm 66.0 66.0 66.0 46.9 50 2.3 4.7 30.23 0.00 0 0
9/06:30pm 67.1 67.1 67.1 48.4 51 2.4 4.7 30.23 0.00 0 0
9/06:00pm 68.9 68.9 68.9 49.5 50 3.1 6.7 30.23 0.00 0 0
9/05:30pm 68.2 68.2 68.2 46.1 45 3.7 6.0 30.22 0.00 0 0
9/05:00pm 67.8 67.8 67.8 46.3 46 3.6 6.7 30.22 0.00 0 0
9/04:30pm 69.8 69.8 69.8 45.1 41 3.6 6.7 30.22 0.00 0 0
9/04:00pm 71.4 71.4 71.4 47.8 43 3.5 7.4 30.22 0.00 0 0
9/03:30pm 69.8 69.8 69.8 48.1 46 1.3 3.4 30.22 0.00 0 0
9/03:00pm 70.7 70.7 70.7 46.5 42 0.3 2.0 30.22 0.00 0 0
 
Date/Time
MST
 
Temp
°F
App
Temp
°F
Heat
Index
°F
Wind
Chill
°F
Dew
Point
°F
Rel
Hum
%
 
Dir
 
 
Spd
km/h
Wind
Gust
km/h
 
Speed
MPH
 
Gust
MPH
Press
MSL
in
Rain
Since 9am
in
 
Solar
W/m2
 
UV
Index




page updated 8/12/2018 3:00:01 PM
powered by  cumulus v1.9.4 (1099)
cumulus software support forum